createdAt,value
2017-02-15T00:00:06.184Z,0
2017-02-15T00:01:18.697Z,0
2017-02-15T00:02:32.408Z,0
2017-02-15T00:03:45.491Z,0
2017-02-15T00:04:59.181Z,0
2017-02-15T00:06:12.300Z,0
2017-02-15T00:07:25.424Z,0
2017-02-15T00:08:39.118Z,0
2017-02-15T00:09:52.227Z,0
2017-02-15T00:11:05.941Z,0
2017-02-15T00:12:19.640Z,0
2017-02-15T00:13:32.785Z,0
2017-02-15T00:14:45.904Z,0
2017-02-15T00:15:59.612Z,0
2017-02-15T00:17:12.728Z,0
2017-02-15T00:18:26.433Z,0
2017-02-15T00:19:40.138Z,0
2017-02-15T00:20:53.833Z,0
2017-02-15T00:22:06.928Z,0
2017-02-15T00:23:20.048Z,0
2017-02-15T00:24:33.767Z,0
2017-02-15T00:25:47.497Z,0
2017-02-15T00:27:00.613Z,0
2017-02-15T00:28:14.335Z,0
2017-02-15T00:29:28.045Z,0
2017-02-15T00:30:41.787Z,0
2017-02-15T00:31:55.576Z,0
2017-02-15T00:33:09.295Z,0
2017-02-15T00:34:23.027Z,0
2017-02-15T00:35:35.545Z,0
2017-02-15T00:36:49.261Z,0
2017-02-15T00:38:03.008Z,0
2017-02-15T00:39:16.757Z,0
2017-02-15T00:40:30.490Z,0
2017-02-15T00:41:44.199Z,0
2017-02-15T00:42:57.928Z,0
2017-02-15T00:44:11.659Z,0
2017-02-15T00:45:25.404Z,0
2017-02-15T00:46:39.185Z,0
2017-02-15T00:47:52.865Z,0
2017-02-15T00:49:06.558Z,0
2017-02-15T00:50:19.660Z,0
2017-02-15T00:51:33.377Z,0
2017-02-15T00:52:47.062Z,0
2017-02-15T00:54:00.795Z,0
2017-02-15T00:55:14.524Z,0
2017-02-15T00:56:28.192Z,0
2017-02-15T00:57:41.938Z,0
2017-02-15T00:58:55.689Z,0
2017-02-15T01:00:08.824Z,0
2017-02-15T01:01:21.932Z,0
2017-02-15T01:02:35.131Z,0
2017-02-15T01:03:48.831Z,0
2017-02-15T01:05:02.530Z,0
2017-02-15T01:06:16.257Z,0
2017-02-15T01:07:29.962Z,0
2017-02-15T01:08:43.756Z,0
2017-02-15T01:09:57.483Z,0
2017-02-15T01:11:10.598Z,0
2017-02-15T01:12:23.705Z,0
2017-02-15T01:13:37.414Z,0
2017-02-15T01:14:51.150Z,0
2017-02-15T01:16:04.890Z,0
2017-02-15T01:17:18.663Z,0
2017-02-15T01:18:31.775Z,0
2017-02-15T01:19:44.894Z,0
2017-02-15T01:20:58.650Z,0
2017-02-15T01:22:12.371Z,0
2017-02-15T01:23:26.056Z,0
2017-02-15T01:24:39.752Z,0
2017-02-15T01:25:52.908Z,0
2017-02-15T01:27:06.612Z,0
2017-02-15T01:28:18.551Z,0
2017-02-15T01:29:32.260Z,0
2017-02-15T01:30:45.995Z,0
2017-02-15T01:31:59.758Z,0
2017-02-15T01:33:13.471Z,0
2017-02-15T01:34:27.230Z,0
2017-02-15T01:35:40.935Z,0
2017-02-15T01:36:54.629Z,0
2017-02-15T01:38:08.326Z,0
2017-02-15T01:39:22.025Z,0
2017-02-15T01:40:35.753Z,0
2017-02-15T01:41:48.887Z,0
2017-02-15T01:43:02.586Z,0
2017-02-15T01:44:15.688Z,0
2017-02-15T01:45:28.783Z,0
2017-02-15T01:46:42.495Z,0
2017-02-15T01:47:56.262Z,0
2017-02-15T01:49:09.998Z,0
2017-02-15T01:50:23.709Z,0
2017-02-15T01:51:37.417Z,0
2017-02-15T01:52:51.114Z,0
2017-02-15T01:54:04.816Z,0
2017-02-15T01:55:18.537Z,0
2017-02-15T01:56:32.291Z,0
2017-02-15T01:57:45.400Z,0
2017-02-15T01:58:59.108Z,0
2017-02-15T02:00:12.281Z,0
2017-02-15T02:01:26.002Z,0
2017-02-15T02:02:39.111Z,0
2017-02-15T02:03:52.829Z,0
2017-02-15T02:05:06.522Z,0
2017-02-15T02:06:20.223Z,0
2017-02-15T02:07:33.923Z,0
2017-02-15T02:08:47.061Z,0
2017-02-15T02:10:00.144Z,0
2017-02-15T02:11:13.868Z,0
2017-02-15T02:12:27.675Z,0
2017-02-15T02:13:40.875Z,0
2017-02-15T02:14:54.606Z,0
2017-02-15T02:16:08.319Z,0
2017-02-15T02:17:22.058Z,0
2017-02-15T02:18:35.711Z,0
2017-02-15T02:19:49.401Z,0
2017-02-15T02:21:02.514Z,0
2017-02-15T02:22:15.653Z,0
2017-02-15T02:23:29.413Z,0
2017-02-15T02:24:43.152Z,0
2017-02-15T02:25:56.952Z,0
2017-02-15T02:27:10.693Z,0
2017-02-15T02:28:24.414Z,0
2017-02-15T02:29:38.143Z,0
2017-02-15T02:30:51.850Z,0
2017-02-15T02:32:05.576Z,0
2017-02-15T02:33:19.321Z,0
2017-02-15T02:34:33.005Z,0
2017-02-15T02:35:46.699Z,0
2017-02-15T02:37:00.453Z,0
2017-02-15T02:38:13.567Z,0
2017-02-15T02:39:27.296Z,0
2017-02-15T02:40:41.012Z,0
2017-02-15T02:41:54.738Z,0
2017-02-15T02:43:08.485Z,0
2017-02-15T02:44:21.585Z,0
2017-02-15T02:45:35.269Z,0
2017-02-15T02:46:49.022Z,0
2017-02-15T02:48:02.779Z,0
2017-02-15T02:49:16.493Z,0
2017-02-15T02:50:29.022Z,0
2017-02-15T02:51:42.775Z,0
2017-02-15T02:52:56.473Z,0
2017-02-15T02:54:10.203Z,0
2017-02-15T02:55:23.998Z,0
2017-02-15T02:56:37.723Z,0
2017-02-15T02:57:51.433Z,0
2017-02-15T02:59:05.164Z,0
2017-02-15T03:00:18.892Z,0
2017-02-15T03:01:31.990Z,0
2017-02-15T03:02:45.731Z,0
2017-02-15T03:03:59.507Z,0
2017-02-15T03:05:12.648Z,0
2017-02-15T03:06:26.354Z,0
2017-02-15T03:07:39.475Z,0
2017-02-15T03:08:53.170Z,0
2017-02-15T03:10:06.878Z,0
2017-02-15T03:11:20.583Z,0
2017-02-15T03:12:33.679Z,0
2017-02-15T03:13:47.404Z,0
2017-02-15T03:15:01.192Z,0
2017-02-15T03:16:14.295Z,0
2017-02-15T03:17:27.385Z,0
2017-02-15T03:18:40.480Z,0
2017-02-15T03:19:54.185Z,0
2017-02-15T03:21:07.890Z,0
2017-02-15T03:22:21.043Z,0
2017-02-15T03:23:34.781Z,0
2017-02-15T03:24:48.538Z,0
2017-02-15T03:26:01.622Z,0
2017-02-15T03:27:15.354Z,0
2017-02-15T03:28:29.076Z,0
2017-02-15T03:29:42.779Z,0
2017-02-15T03:30:56.471Z,0
2017-02-15T03:32:10.229Z,0
2017-02-15T03:33:23.939Z,0
2017-02-15T03:34:37.063Z,0
2017-02-15T03:35:50.783Z,0
2017-02-15T03:37:04.477Z,0
2017-02-15T03:38:17.602Z,0
2017-02-15T03:39:31.337Z,0
2017-02-15T03:40:45.086Z,0
2017-02-15T03:41:58.776Z,0
2017-02-15T03:43:12.479Z,0
2017-02-15T03:44:26.168Z,0
2017-02-15T03:45:39.863Z,0
2017-02-15T03:46:53.647Z,0
2017-02-15T03:48:07.375Z,0
2017-02-15T03:49:21.131Z,0
2017-02-15T03:50:34.802Z,0
2017-02-15T03:51:48.517Z,0
2017-02-15T03:53:02.281Z,0
2017-02-15T03:54:15.405Z,0
2017-02-15T03:55:29.140Z,0
2017-02-15T03:56:42.859Z,0
2017-02-15T03:57:56.561Z,0
2017-02-15T03:59:10.284Z,0
2017-02-15T04:00:23.390Z,0
2017-02-15T04:01:37.096Z,0
2017-02-15T04:02:50.806Z,0
2017-02-15T04:04:04.632Z,0
2017-02-15T04:05:18.351Z,0
2017-02-15T04:06:32.114Z,0
2017-02-15T04:07:45.867Z,0
2017-02-15T04:08:59.557Z,0
2017-02-15T04:10:13.218Z,0
2017-02-15T04:11:26.946Z,0
2017-02-15T04:12:40.118Z,0
2017-02-15T04:13:53.847Z,0
2017-02-15T04:15:07.556Z,0
2017-02-15T04:16:20.678Z,0
2017-02-15T04:17:34.435Z,0
2017-02-15T04:18:48.099Z,0
2017-02-15T04:20:01.813Z,0
2017-02-15T04:21:14.928Z,0
2017-02-15T04:22:28.609Z,0
2017-02-15T04:23:42.325Z,0
2017-02-15T04:24:56.053Z,0
2017-02-15T04:26:09.816Z,0
2017-02-15T04:27:23.537Z,0
2017-02-15T04:28:37.280Z,0
2017-02-15T04:29:50.980Z,0
2017-02-15T04:31:04.702Z,0
2017-02-15T04:32:17.844Z,0
2017-02-15T04:33:31.541Z,0
2017-02-15T04:34:45.307Z,0
2017-02-15T04:35:59.043Z,0
2017-02-15T04:37:12.762Z,0
2017-02-15T04:38:26.500Z,0
2017-02-15T04:39:40.220Z,0
2017-02-15T04:40:53.943Z,0
2017-02-15T04:42:07.641Z,0
2017-02-15T04:43:20.780Z,0
2017-02-15T04:44:34.490Z,0
2017-02-15T04:45:48.182Z,0
2017-02-15T04:47:01.901Z,0
2017-02-15T04:48:15.612Z,0
2017-02-15T04:49:29.367Z,0
2017-02-15T04:50:42.522Z,0
2017-02-15T04:51:56.250Z,0
2017-02-15T04:53:10.001Z,0
2017-02-15T04:54:23.706Z,0
2017-02-15T04:55:37.442Z,0
2017-02-15T04:56:51.194Z,0
2017-02-15T04:58:04.902Z,0
2017-02-15T04:59:18.603Z,0
2017-02-15T05:00:32.310Z,0
2017-02-15T05:01:46.053Z,0
2017-02-15T05:02:59.747Z,0
2017-02-15T05:04:13.496Z,0
2017-02-15T05:05:26.620Z,0
2017-02-15T05:06:40.347Z,0
2017-02-15T05:07:54.048Z,0
2017-02-15T05:09:07.773Z,0
2017-02-15T05:10:21.505Z,0
2017-02-15T05:11:35.206Z,0
2017-02-15T05:12:48.911Z,0
2017-02-15T05:14:02.683Z,0
2017-02-15T05:15:15.854Z,0
2017-02-15T05:16:29.012Z,0
2017-02-15T05:17:42.764Z,0
2017-02-15T05:18:55.935Z,0
2017-02-15T05:20:09.103Z,0
2017-02-15T05:21:21.588Z,0
2017-02-15T05:22:35.367Z,0
2017-02-15T05:23:49.077Z,0
2017-02-15T05:25:02.817Z,0
2017-02-15T05:26:15.918Z,0
2017-02-15T05:27:29.101Z,0
2017-02-15T05:28:42.822Z,0
2017-02-15T05:29:55.943Z,0
2017-02-15T05:31:09.738Z,0
2017-02-15T05:32:23.467Z,0
2017-02-15T05:33:37.164Z,0
2017-02-15T05:34:50.878Z,0
2017-02-15T05:36:04.639Z,0
2017-02-15T05:37:18.397Z,0
2017-02-15T05:38:32.090Z,0
2017-02-15T05:39:45.829Z,0
2017-02-15T05:40:58.985Z,0
2017-02-15T05:42:12.121Z,0
2017-02-15T05:43:25.840Z,0
2017-02-15T05:44:39.588Z,0
2017-02-15T05:45:52.688Z,0
2017-02-15T05:47:06.402Z,0
2017-02-15T05:48:20.115Z,0
2017-02-15T05:49:33.806Z,0
2017-02-15T05:50:47.523Z,0
2017-02-15T05:52:01.248Z,0
2017-02-15T05:53:14.956Z,0
2017-02-15T05:54:28.701Z,0
2017-02-15T05:55:42.447Z,0
2017-02-15T05:56:56.193Z,0
2017-02-15T05:58:09.959Z,0
2017-02-15T05:59:23.661Z,0
2017-02-15T06:00:36.805Z,0
2017-02-15T06:01:50.575Z,0
2017-02-15T06:03:04.268Z,0
2017-02-15T06:04:18.028Z,0
2017-02-15T06:05:31.743Z,0
2017-02-15T06:06:45.438Z,0
2017-02-15T06:07:59.114Z,0
2017-02-15T06:09:12.879Z,0
2017-02-15T06:10:25.413Z,0
2017-02-15T06:11:39.153Z,0
2017-02-15T06:12:52.907Z,0
2017-02-15T06:14:06.680Z,0
2017-02-15T06:15:18.628Z,0
2017-02-15T06:16:32.331Z,0
2017-02-15T06:17:46.025Z,0
2017-02-15T06:18:59.729Z,0
2017-02-15T06:20:12.856Z,0
2017-02-15T06:21:26.021Z,0
2017-02-15T06:22:39.725Z,0
2017-02-15T06:23:52.875Z,0
2017-02-15T06:25:06.564Z,0
2017-02-15T06:26:20.269Z,0
2017-02-15T06:27:34.042Z,0
2017-02-15T06:28:47.145Z,0
2017-02-15T06:30:00.258Z,0
2017-02-15T06:31:13.977Z,0
2017-02-15T06:32:27.673Z,0
2017-02-15T06:33:40.827Z,0
2017-02-15T06:34:54.712Z,0
2017-02-15T06:36:07.835Z,0
2017-02-15T06:37:20.432Z,0
2017-02-15T06:38:34.149Z,0
2017-02-15T06:39:47.850Z,0
2017-02-15T06:41:00.982Z,0
2017-02-15T06:42:13.491Z,0
2017-02-15T06:43:27.229Z,0
2017-02-15T06:44:40.936Z,0
2017-02-15T06:45:54.103Z,0
2017-02-15T06:47:11.332Z,0
2017-02-15T06:48:25.028Z,0
2017-02-15T06:49:39.132Z,0
2017-02-15T06:50:52.879Z,0
2017-02-15T06:52:07.321Z,0
2017-02-15T06:53:21.084Z,0
2017-02-15T06:54:35.430Z,0
2017-02-15T06:55:48.545Z,0
2017-02-15T06:57:02.993Z,0
2017-02-15T06:58:17.417Z,0
2017-02-15T06:59:31.824Z,0
2017-02-15T07:00:45.573Z,0
2017-02-15T07:01:59.927Z,0
2017-02-15T07:03:13.666Z,0
2017-02-15T07:04:27.437Z,0
2017-02-15T07:05:41.191Z,0
2017-02-15T07:06:55.647Z,0
2017-02-15T07:08:09.442Z,0
2017-02-15T07:09:23.229Z,0
2017-02-15T07:10:37.619Z,0
2017-02-15T07:11:52.003Z,0
2017-02-15T07:13:06.378Z,0
2017-02-15T07:14:20.772Z,0
2017-02-15T07:15:35.183Z,0
2017-02-15T07:16:49.539Z,0
2017-02-15T07:18:03.950Z,0
2017-02-15T07:19:18.334Z,0
2017-02-15T07:20:32.748Z,0
2017-02-15T07:21:47.123Z,0
2017-02-15T07:23:01.525Z,0
2017-02-15T07:24:15.246Z,0
2017-02-15T07:25:29.627Z,0
2017-02-15T07:26:44.024Z,0
2017-02-15T07:27:58.441Z,0
2017-02-15T07:29:12.863Z,0
2017-02-15T07:30:26.606Z,0
2017-02-15T07:31:40.321Z,0
2017-02-15T07:32:54.744Z,0
2017-02-15T07:34:09.118Z,0
2017-02-15T07:35:22.883Z,0
2017-02-15T07:36:36.638Z,0
2017-02-15T07:37:50.371Z,0
2017-02-15T07:39:04.786Z,0
2017-02-15T07:40:19.182Z,0
2017-02-15T07:41:33.577Z,0
2017-02-15T07:42:48.021Z,0
2017-02-15T07:44:01.760Z,0
2017-02-15T07:45:16.182Z,0
2017-02-15T07:46:30.614Z,0
2017-02-15T07:47:44.383Z,0
2017-02-15T07:48:58.772Z,0
2017-02-15T07:50:13.210Z,0
2017-02-15T07:51:26.942Z,0
2017-02-15T07:52:40.714Z,0
2017-02-15T07:53:54.516Z,0
2017-02-15T07:55:08.925Z,0
2017-02-15T07:56:22.098Z,0
2017-02-15T07:57:36.518Z,0
2017-02-15T07:58:50.922Z,0
2017-02-15T08:00:04.717Z,0
2017-02-15T08:01:19.103Z,0
2017-02-15T08:02:33.522Z,0
2017-02-15T08:03:47.929Z,0
2017-02-15T08:05:01.694Z,0
2017-02-15T08:06:15.474Z,0
2017-02-15T08:07:29.288Z,0
2017-02-15T08:08:43.673Z,0
2017-02-15T08:09:58.097Z,0
2017-02-15T08:11:12.516Z,0
2017-02-15T08:12:26.267Z,0
2017-02-15T08:13:40.657Z,0
2017-02-15T08:14:55.071Z,0
2017-02-15T08:16:09.474Z,0
2017-02-15T08:17:23.206Z,0
2017-02-15T08:18:37.605Z,0
2017-02-15T08:19:51.992Z,0
2017-02-15T08:21:06.389Z,0
2017-02-15T08:22:20.843Z,0
2017-02-15T08:23:35.239Z,0
2017-02-15T08:24:49.611Z,0
2017-02-15T08:26:04.003Z,0
2017-02-15T08:27:17.798Z,0
2017-02-15T08:28:32.206Z,0
2017-02-15T08:29:46.610Z,0
2017-02-15T08:31:01.017Z,0
2017-02-15T08:32:15.505Z,0
2017-02-15T08:33:29.258Z,0
2017-02-15T08:34:43.058Z,0
2017-02-15T08:35:57.482Z,0
2017-02-15T08:37:11.908Z,0
2017-02-15T08:38:26.359Z,0
2017-02-15T08:39:40.803Z,0
2017-02-15T08:40:55.201Z,0
2017-02-15T08:42:09.020Z,0
2017-02-15T08:43:22.770Z,5
2017-02-15T08:44:36.598Z,5
2017-02-15T08:45:51.017Z,5
2017-02-15T08:47:05.448Z,10
2017-02-15T08:48:19.998Z,10
2017-02-15T08:49:33.721Z,15
2017-02-15T08:50:47.515Z,15
2017-02-15T08:52:01.987Z,20
2017-02-15T08:53:16.385Z,25
2017-02-15T08:54:30.873Z,30
2017-02-15T08:55:45.302Z,35
2017-02-15T08:56:59.706Z,40
2017-02-15T08:58:13.493Z,45
2017-02-15T08:59:27.946Z,50
2017-02-15T09:00:42.391Z,65
2017-02-15T09:01:55.492Z,75
2017-02-15T09:03:09.902Z,80
2017-02-15T09:04:24.326Z,90
2017-02-15T09:05:38.718Z,105
2017-02-15T09:06:53.146Z,115
2017-02-15T09:08:07.638Z,130
2017-02-15T09:09:22.085Z,140
2017-02-15T09:10:35.895Z,155
2017-02-15T09:11:50.314Z,175
2017-02-15T09:13:04.756Z,195
2017-02-15T09:14:18.642Z,210
2017-02-15T09:15:33.091Z,225
2017-02-15T09:16:47.485Z,250
2017-02-15T09:18:01.926Z,270
2017-02-15T09:19:16.477Z,285
2017-02-15T09:20:30.249Z,305
2017-02-15T09:21:44.665Z,320
2017-02-15T09:22:58.475Z,335
2017-02-15T09:24:12.331Z,365
2017-02-15T09:25:26.831Z,385
2017-02-15T09:26:40.591Z,410
2017-02-15T09:27:55.077Z,415
2017-02-15T09:29:09.507Z,435
2017-02-15T09:30:23.408Z,465
2017-02-15T09:31:37.924Z,490
2017-02-15T09:32:52.386Z,520
2017-02-15T09:34:06.879Z,545
2017-02-15T09:35:20.727Z,570
2017-02-15T09:36:35.296Z,595
2017-02-15T09:37:49.731Z,615
2017-02-15T09:39:04.181Z,625
2017-02-15T09:40:18.680Z,660
2017-02-15T09:41:32.597Z,670
2017-02-15T09:42:47.065Z,685
2017-02-15T09:44:01.520Z,730
2017-02-15T09:45:16.100Z,760
2017-02-15T09:46:29.413Z,775
2017-02-15T09:47:43.912Z,795
2017-02-15T09:48:57.045Z,815
2017-02-15T09:50:11.007Z,800
2017-02-15T09:51:24.240Z,825
2017-02-15T09:52:38.680Z,875
2017-02-15T09:53:53.144Z,910
2017-02-15T09:55:06.971Z,945
2017-02-15T09:56:20.864Z,965
2017-02-15T09:57:35.298Z,970
2017-02-15T09:58:49.723Z,1005
2017-02-15T10:00:03.476Z,1020
2017-02-15T10:01:17.303Z,1045
2017-02-15T10:02:31.765Z,1065
2017-02-15T10:03:46.355Z,1100
2017-02-15T10:05:00.787Z,1130
2017-02-15T10:06:14.644Z,1145
2017-02-15T10:07:29.200Z,1170
2017-02-15T10:08:43.014Z,1200
2017-02-15T10:09:57.532Z,1215
2017-02-15T10:11:11.297Z,1265
2017-02-15T10:12:25.265Z,1285
2017-02-15T10:13:39.850Z,1305
2017-02-15T10:14:54.359Z,1320
2017-02-15T10:16:08.386Z,1345
2017-02-15T10:17:21.825Z,1395
2017-02-15T10:18:35.651Z,1400
2017-02-15T10:19:50.277Z,1410
2017-02-15T10:21:04.774Z,1460
2017-02-15T10:22:18.700Z,1475
2017-02-15T10:23:33.154Z,1495
2017-02-15T10:24:47.656Z,1540
2017-02-15T10:26:02.299Z,1570
2017-02-15T10:27:16.888Z,1620
2017-02-15T10:28:31.425Z,1600
2017-02-15T10:29:46.046Z,1585
2017-02-15T10:31:00.036Z,1675
2017-02-15T10:32:14.608Z,1650
2017-02-15T10:33:27.848Z,1605
2017-02-15T10:34:42.437Z,1595
2017-02-15T10:35:56.899Z,1650
2017-02-15T10:37:11.595Z,1695
2017-02-15T10:38:25.506Z,1755
2017-02-15T10:39:39.333Z,1810
2017-02-15T10:40:53.940Z,1820
2017-02-15T10:42:07.915Z,1745
2017-02-15T10:43:21.830Z,1790
2017-02-15T10:44:36.551Z,1840
2017-02-15T10:45:51.118Z,1875
2017-02-15T10:47:05.814Z,1910
2017-02-15T10:48:20.435Z,1865
2017-02-15T10:49:34.288Z,1860
2017-02-15T10:50:48.142Z,1940
2017-02-15T10:52:02.773Z,2005
2017-02-15T10:53:16.734Z,2000
2017-02-15T10:54:31.534Z,2040
2017-02-15T10:55:46.032Z,2085
2017-02-15T10:57:00.723Z,2090
2017-02-15T10:58:14.077Z,2010
2017-02-15T10:59:28.027Z,2070
2017-02-15T11:00:42.540Z,2020
2017-02-15T11:01:57.162Z,1865
2017-02-15T11:03:11.807Z,1855
2017-02-15T11:04:26.635Z,1765
2017-02-15T11:05:40.655Z,1915
2017-02-15T11:06:55.203Z,1895
2017-02-15T11:08:09.740Z,1735
2017-02-15T11:09:24.258Z,1605
2017-02-15T11:10:38.781Z,1605
2017-02-15T11:11:52.815Z,1440
2017-02-15T11:13:06.937Z,1330
2017-02-15T11:14:21.553Z,1230
2017-02-15T11:15:36.202Z,1160
2017-02-15T11:16:50.927Z,1350
2017-02-15T11:18:05.471Z,2500
2017-02-15T11:19:20.272Z,2505
2017-02-15T11:20:35.061Z,2340
2017-02-15T11:21:49.655Z,2180
2017-02-15T11:23:03.727Z,2195
2017-02-15T11:24:18.357Z,2330
2017-02-15T11:25:33.144Z,2455
2017-02-15T11:26:47.730Z,2460
2017-02-15T11:28:02.177Z,2330
2017-02-15T11:29:15.347Z,2255
2017-02-15T11:30:30.215Z,1845
2017-02-15T11:31:44.933Z,2205
2017-02-15T11:32:59.420Z,2205
2017-02-15T11:34:14.064Z,2230
2017-02-15T11:35:28.046Z,2325
2017-02-15T11:36:42.083Z,2440
2017-02-15T11:37:56.724Z,2525
2017-02-15T11:39:11.362Z,2615
2017-02-15T11:40:25.950Z,2780
2017-02-15T11:41:40.474Z,2525
2017-02-15T11:42:54.987Z,2470
2017-02-15T11:44:08.971Z,2275
2017-02-15T11:45:23.647Z,2555
2017-02-15T11:46:38.251Z,2680
2017-02-15T11:47:52.907Z,2590
2017-02-15T11:49:06.738Z,2575
2017-02-15T11:50:21.245Z,2675
2017-02-15T11:51:35.919Z,2670
2017-02-15T11:52:50.497Z,2545
2017-02-15T11:54:17.333Z,2500
2017-02-15T11:55:31.958Z,2660
2017-02-15T11:56:48.217Z,2515
2017-02-15T11:58:02.812Z,2785
2017-02-15T11:59:16.259Z,2830
2017-02-15T12:00:30.859Z,2890
2017-02-15T12:01:45.422Z,2905
2017-02-15T12:03:00.067Z,2885
2017-02-15T12:04:14.024Z,2940
2017-02-15T12:05:28.796Z,3000
2017-02-15T12:06:51.048Z,3095
2017-02-15T12:08:05.665Z,3090
2017-02-15T12:09:19.766Z,2900
2017-02-15T12:10:34.478Z,2955
2017-02-15T12:11:49.128Z,2805
2017-02-15T12:13:03.602Z,2930
2017-02-15T12:14:17.504Z,2935
2017-02-15T12:15:32.323Z,3115
2017-02-15T12:16:47.002Z,3105
2017-02-15T12:18:01.790Z,3105
2017-02-15T12:19:16.310Z,3105
2017-02-15T12:20:30.996Z,3175
2017-02-15T12:21:45.564Z,3285
2017-02-15T12:23:00.448Z,3015
2017-02-15T12:24:15.211Z,3015
2017-02-15T12:25:29.764Z,3060
2017-02-15T12:26:44.495Z,3140
2017-02-15T12:27:59.043Z,2655
2017-02-15T12:29:12.495Z,2605
2017-02-15T12:30:26.335Z,3040
2017-02-15T12:31:40.865Z,3020
2017-02-15T12:32:55.318Z,2995
2017-02-15T12:34:09.993Z,3145
2017-02-15T12:35:24.319Z,3180
2017-02-15T12:36:38.313Z,3165
2017-02-15T12:37:52.869Z,3175
2017-02-15T12:39:07.571Z,3195
2017-02-15T12:40:21.702Z,3365
2017-02-15T12:41:36.303Z,3370
2017-02-15T12:42:50.845Z,3300
2017-02-15T12:44:05.383Z,3100
2017-02-15T12:45:19.334Z,3145
2017-02-15T12:46:34.201Z,3370
2017-02-15T12:47:48.875Z,3540
2017-02-15T12:49:03.751Z,2880
2017-02-15T12:50:19.894Z,2445
2017-02-15T12:51:34.499Z,3445
2017-02-15T12:52:49.070Z,3820
2017-02-15T12:54:03.631Z,3570
2017-02-15T12:55:18.434Z,3520
2017-02-15T12:56:32.341Z,3560
2017-02-15T12:57:46.356Z,3540
2017-02-15T12:59:02.529Z,3550
2017-02-15T13:00:16.514Z,3445
2017-02-15T13:01:31.283Z,3400
2017-02-15T13:02:46.062Z,3465
2017-02-15T13:04:00.210Z,3385
2017-02-15T13:05:14.491Z,3330
2017-02-15T13:06:29.044Z,3585
2017-02-15T13:07:43.777Z,3710
2017-02-15T13:08:58.584Z,3915
2017-02-15T13:10:12.577Z,3685
2017-02-15T13:11:27.558Z,3640
2017-02-15T13:12:41.524Z,3785
2017-02-15T13:13:56.627Z,3585
2017-02-15T13:15:10.579Z,3610
2017-02-15T13:16:25.187Z,3590
2017-02-15T13:17:38.371Z,3910
2017-02-15T13:18:52.878Z,3875
2017-02-15T13:20:07.557Z,3740
2017-02-15T13:21:21.807Z,3820
2017-02-15T13:22:36.568Z,3945
2017-02-15T13:23:51.252Z,3570
2017-02-15T13:25:05.860Z,3580
2017-02-15T13:26:19.923Z,3985
2017-02-15T13:27:34.607Z,3845
2017-02-15T13:28:49.451Z,3915
2017-02-15T13:30:03.945Z,3830
2017-02-15T13:31:18.697Z,4270
2017-02-15T13:32:33.357Z,3660
2017-02-15T13:33:48.272Z,3255
2017-02-15T13:35:02.817Z,3990
2017-02-15T13:36:16.789Z,4060
2017-02-15T13:37:31.496Z,4085
2017-02-15T13:38:45.558Z,4025
2017-02-15T13:40:00.153Z,4360
2017-02-15T13:41:14.152Z,4390
2017-02-15T13:42:29.064Z,4185
2017-02-15T13:43:43.761Z,4350
2017-02-15T13:44:58.401Z,4195
2017-02-15T13:46:12.966Z,3845
2017-02-15T13:47:27.007Z,3955
2017-02-15T13:48:40.909Z,4115
2017-02-15T13:49:54.976Z,4570
2017-02-15T13:51:11.188Z,4320
2017-02-15T13:52:25.776Z,4265
2017-02-15T13:53:40.335Z,4415
2017-02-15T13:54:54.268Z,4390
2017-02-15T13:56:08.168Z,4615
2017-02-15T13:57:23.677Z,4435
2017-02-15T13:58:38.274Z,4920
2017-02-15T13:59:52.507Z,4580
2017-02-15T14:01:07.219Z,3185
2017-02-15T14:02:21.912Z,3660
2017-02-15T14:03:36.435Z,5005
2017-02-15T14:04:50.929Z,4890
2017-02-15T14:06:05.374Z,4825
2017-02-15T14:07:19.829Z,4475
2017-02-15T14:08:33.036Z,4310
2017-02-15T14:09:46.977Z,4700
2017-02-15T14:11:03.323Z,4450
2017-02-15T14:12:18.538Z,4585
2017-02-15T14:13:33.114Z,4805
2017-02-15T14:14:48.291Z,4770
2017-02-15T14:16:04.140Z,4845
2017-02-15T14:17:18.544Z,4690
2017-02-15T14:18:33.044Z,4975
2017-02-15T14:19:46.278Z,4660
2017-02-15T14:21:00.424Z,4080
2017-02-15T14:22:14.507Z,2625
2017-02-15T14:23:29.248Z,4745
2017-02-15T14:24:43.838Z,4450
2017-02-15T14:25:57.259Z,4830
2017-02-15T14:27:11.602Z,4975
2017-02-15T14:28:26.162Z,4890
2017-02-15T14:29:40.139Z,4550
2017-02-15T14:30:54.886Z,4590
2017-02-15T14:32:08.967Z,4655
2017-02-15T14:33:23.571Z,4770
2017-02-15T14:34:38.435Z,2685
2017-02-15T14:35:54.657Z,4435
2017-02-15T14:37:08.642Z,4780
2017-02-15T14:38:22.669Z,4985
2017-02-15T14:39:37.281Z,4860
2017-02-15T14:40:51.211Z,4780
2017-02-15T14:42:05.145Z,4630
2017-02-15T14:43:19.406Z,4710
2017-02-15T14:44:34.071Z,4485
2017-02-15T14:45:49.625Z,4755
2017-02-15T14:47:03.794Z,4895
2017-02-15T14:48:17.731Z,3700
2017-02-15T14:49:31.979Z,4375
2017-02-15T14:50:46.025Z,1515
2017-02-15T14:52:00.700Z,1375
2017-02-15T14:53:15.356Z,1320
2017-02-15T14:54:29.467Z,1260
2017-02-15T14:55:43.275Z,1235
2017-02-15T14:56:57.498Z,1230
2017-02-15T14:58:13.755Z,1260
2017-02-15T14:59:27.534Z,1370
2017-02-15T15:00:41.500Z,2915
2017-02-15T15:01:55.481Z,5010
2017-02-15T15:03:10.290Z,1685
2017-02-15T15:04:25.336Z,1495
2017-02-15T15:05:41.539Z,1410
2017-02-15T15:06:56.529Z,1380
2017-02-15T15:08:11.505Z,1375
2017-02-15T15:09:25.487Z,1335
2017-02-15T15:10:40.110Z,1350
2017-02-15T15:11:54.794Z,1385
2017-02-15T15:13:08.725Z,1370
2017-02-15T15:14:23.444Z,1370
2017-02-15T15:15:38.176Z,1330
2017-02-15T15:16:52.742Z,1285
2017-02-15T15:18:06.767Z,1235
2017-02-15T15:19:20.101Z,1210
2017-02-15T15:20:34.181Z,1210
2017-02-15T15:21:48.822Z,1250
2017-02-15T15:23:03.334Z,1305
2017-02-15T15:24:17.310Z,1365
2017-02-15T15:25:32.013Z,1375
2017-02-15T15:26:46.961Z,1315
2017-02-15T15:28:01.078Z,1285
2017-02-15T15:29:15.587Z,1270
2017-02-15T15:30:31.852Z,1285
2017-02-15T15:31:48.139Z,1330
2017-02-15T15:33:02.932Z,1380
2017-02-15T15:34:17.580Z,1455
2017-02-15T15:35:32.059Z,1555
2017-02-15T15:36:46.758Z,1685
2017-02-15T15:38:01.511Z,4670
2017-02-15T15:39:15.978Z,4780
2017-02-15T15:40:29.854Z,4970
2017-02-15T15:41:44.354Z,3290
2017-02-15T15:42:58.936Z,4085
2017-02-15T15:44:12.907Z,3825
2017-02-15T15:45:27.765Z,4350
2017-02-15T15:46:42.232Z,1805
2017-02-15T15:47:57.115Z,4405
2017-02-15T15:49:11.756Z,2545
2017-02-15T15:50:26.190Z,3325
2017-02-15T15:51:40.755Z,1640
2017-02-15T15:52:55.509Z,1470
2017-02-15T15:54:10.108Z,1420
2017-02-15T15:55:24.201Z,3675
2017-02-15T15:56:38.768Z,1320
2017-02-15T15:57:53.148Z,1280
2017-02-15T15:59:07.695Z,1255
2017-02-15T16:00:22.356Z,1220
2017-02-15T16:01:36.701Z,1190
2017-02-15T16:02:51.308Z,1165
2017-02-15T16:04:09.830Z,1180
2017-02-15T16:05:23.826Z,1180
2017-02-15T16:06:38.403Z,1240
2017-02-15T16:07:52.928Z,1320
2017-02-15T16:09:07.685Z,1400
2017-02-15T16:10:22.565Z,1420
2017-02-15T16:11:36.958Z,1400
2017-02-15T16:12:51.715Z,1405
2017-02-15T16:14:10.783Z,1535
2017-02-15T16:15:24.761Z,3290
2017-02-15T16:16:38.755Z,1710
2017-02-15T16:17:52.656Z,1680
2017-02-15T16:19:07.656Z,3840
2017-02-15T16:20:22.373Z,1965
2017-02-15T16:21:36.956Z,1690
2017-02-15T16:22:51.849Z,1615
2017-02-15T16:24:07.488Z,1620
2017-02-15T16:25:23.741Z,1930
2017-02-15T16:26:38.564Z,1725
2017-02-15T16:27:53.502Z,1730
2017-02-15T16:29:06.859Z,1755
2017-02-15T16:30:20.215Z,3085
2017-02-15T16:31:34.805Z,4315
2017-02-15T16:32:49.507Z,2855
2017-02-15T16:34:02.836Z,4195
2017-02-15T16:35:16.086Z,4375
2017-02-15T16:36:30.281Z,4175
2017-02-15T16:37:44.857Z,4140
2017-02-15T16:38:59.465Z,4350
2017-02-15T16:40:13.088Z,2690
2017-02-15T16:41:27.891Z,3690
2017-02-15T16:42:42.473Z,2405
2017-02-15T16:44:00.235Z,3430
2017-02-15T16:45:15.139Z,1795
2017-02-15T16:46:29.310Z,1805
2017-02-15T16:47:44.035Z,2280
2017-02-15T16:48:59.123Z,2650
2017-02-15T16:50:13.910Z,2395
2017-02-15T16:51:29.803Z,2920
2017-02-15T16:52:44.413Z,2775
2017-02-15T16:53:58.926Z,1860
2017-02-15T16:55:13.868Z,2850
2017-02-15T16:56:28.044Z,2540
2017-02-15T16:57:43.349Z,1515
2017-02-15T16:58:58.553Z,1475
2017-02-15T17:00:13.299Z,1435
2017-02-15T17:01:27.957Z,1465
2017-02-15T17:02:42.602Z,1955
2017-02-15T17:03:57.358Z,1545
2017-02-15T17:05:12.051Z,1425
2017-02-15T17:06:26.648Z,1350
2017-02-15T17:07:41.339Z,1280
2017-02-15T17:08:56.292Z,1200
2017-02-15T17:10:10.123Z,1110
2017-02-15T17:11:26.473Z,1080
2017-02-15T17:12:40.980Z,1080
2017-02-15T17:13:55.494Z,1110
2017-02-15T17:15:08.770Z,1105
2017-02-15T17:16:25.235Z,1065
2017-02-15T17:17:39.731Z,1070
2017-02-15T17:18:53.603Z,1065
2017-02-15T17:20:07.299Z,1060
2017-02-15T17:21:21.332Z,1085